x

Fowey Rock, Fl (fwyf1) Weather Station

9:00am - Wed 22nd Nov 2017 All times are EST. -5 hours from GMT.

  • Wind
    9mph, 10mph gusts
  • Sea Temp 77°f
  • Air Temp 75°f
  • Sea Pressure 1015mb
  • Fowey Rock, Fl
  • Fowey Rock, Fl

More Historic Weather Station data

Upgrade to MSW Pro to gain access to the past 30 days of data for over 8000 Wavebouys and Weather Stations around the globe.

Join

Comparision Forecast

View Surf forecast
   
Wed 11/22 9:00am 9 10 mph 1015mb 77f 75f
8:00am 7 7 mph 1014.5mb 76f 76f
7:00am 5 5 mph 1013.9mb 76f 75f
6:00am 5 5 mph 1013.4mb 76f 75f
5:00am 2 2 mph 1013.5mb 76f 75f
4:00am 5 6 mph 1013.4mb 76f 76f
3:00am 2 2 mph 1013.1mb 76f 76f
12:00am 7 7 mph 1014.3mb 76f 77f
Tue 11/21 11:00pm 9 10 mph 1014.6mb 76f 78f
10:00pm 11 13 mph 1014.5mb 77f 78f
9:00pm 13 14 mph 1014.2mb 77f 78f
8:00pm 11 13 mph 1013.9mb 76f 78f
7:00pm 8 9 mph 1014.1mb 77f 78f
6:00pm 10 13 mph 1013.7mb 77f 78f
5:00pm 9 10 mph 1013.7mb 77f 78f
4:00pm 8 9 mph 1013.7mb 77f 78f
3:00pm 3 3 mph 1013.7mb 78f 78f
2:00pm 3 5 mph 1014.1mb 78f 79f
1:00pm 5 5 mph 1014.7mb 79f 80f
12:00pm 7 8 mph 1015.7mb 78f 82f
11:00am 9 10 mph 1016.5mb 78f 78f
10:00am 10 11 mph 1016.6mb 78f 78f
9:00am 9 10 mph 1016.4mb 78f 80f
8:00am 11 13 mph 1016mb 77f 78f
7:00am 11 15 mph 1015.7mb 77f 77f
6:00am 15 16 mph 1015mb 77f 77f
5:00am 11 11 mph 1014.7mb 78f 77f
4:00am 13 16 mph 1014.4mb 77f 76f
3:00am 20 23 mph 1014.6mb 78f 76f
2:00am 21 22 mph 1015.3mb 78f 74f
1:00am 17 20 mph 1016mb 78f 74f
12:00am 18 20 mph 1016.5mb 78f 75f
Mon 11/20 11:00pm 22 24 mph 1017.2mb 78f 76f
10:00pm 24 28 mph 1017.4mb 78f 77f
9:00pm 23 26 mph 1017.4mb 78f 77f
8:00pm 24 25 mph 1017.1mb 78f 78f
7:00pm 22 25 mph 1017.2mb 77f 74f
6:00pm 21 22 mph 1016.7mb 77f 77f
5:00pm 22 23 mph 1016.7mb 77f 76f
4:00pm 22 24 mph 1016.5mb 77f 76f
3:00pm 24 25 mph 1016.6mb 78f 76f
2:00pm 24 25 mph 1016.7mb 78f 76f
1:00pm 25 28 mph 1017.2mb 78f 75f
12:00pm 28 30 mph 1017.8mb 79f 75f
11:00am 29 32 mph 1018.2mb 78f 75f
10:00am 32 34 mph 1018.1mb 78f 75f
9:00am 31 33 mph 1017.8mb 78f 75f
8:00am 29 31 mph 1017.3mb 77f 74f
7:00am 18 21 mph 1017.2mb 77f 72f
6:00am 16 17 mph 1016.6mb 77f 72f
5:00am 16 18 mph 1016.1mb 77f 72f
4:00am 15 16 mph 1015.8mb 77f 72f
3:00am 16 17 mph 1015.6mb 77f 73f
2:00am 11 11 mph 1015.6mb 77f 73f
1:00am 11 13 mph 1015.7mb 77f 74f
12:00am 11 13 mph 1015.8mb 78f 73f
Sun 11/19 11:00pm 14 15 mph 1015.7mb 78f 74f
10:00pm 14 15 mph 1015.4mb 78f 74f
9:00pm 11 14 mph 1015.2mb 78f 75f
8:00pm 9 9 mph 1014.6mb 78f 76f
7:00pm 6 7 mph 1014.2mb 78f 76f
6:00pm 6 7 mph 1013.6mb 78f 76f
5:00pm 8 8 mph 1013.1mb 78f 77f
4:00pm 7 7 mph 1012.9mb 78f 77f
3:00pm 5 5 mph 1012.7mb 78f 78f
2:00pm 2 3 mph 1013.1mb 78f 78f
1:00pm 1 2 mph 1013.9mb 78f 76f
12:00pm 7 8 mph 1015.1mb 78f 75f
11:00am 6 6 mph 1015.6mb 78f 75f
10:00am 9 10 mph 1016.2mb 78f 74f
9:00am 9 10 mph 1016.1mb 78f 74f
8:00am 17 18 mph 1015.8mb 78f 74f
7:00am 15 16 mph 1015.1mb 78f 73f
6:00am 14 15 mph 1014.7mb 78f 72f
5:00am 14 14 mph 1014.4mb 78f 72f
4:00am 14 14 mph 1014.3mb 76f 73f
3:00am 9 10 mph 1014.3mb 76f 74f
2:00am 8 8 mph 1014.6mb 76f 74f
1:00am 8 8 mph 1014.7mb 77f 75f
12:00am 8 9 mph 1015mb 77f 75f
Sat 11/18 11:00pm 8 8 mph 1015.2mb 78f 77f
10:00pm 6 7 mph 1015.4mb 78f 77f
9:00pm 7 8 mph 1015.5mb 78f 77f
8:00pm 10 11 mph 1015mb 78f 77f
7:00pm 10 11 mph 1014.5mb 78f 77f
6:00pm 7 8 mph 1014.1mb 78f 77f
5:00pm 11 13 mph 1013.9mb 77f 77f
4:00pm 13 15 mph 1013.7mb 77f 77f